Time;durP1;ratioP1;P1;durP2;ratioP2;P2;SDS_P1;SDS_P2;PMS_P1;PMS_P2;Temp;Humidity;BMP_temperature;BMP_pressure;BME280_temperature;BME280_humidity;BME280_pressure;Samples;Min_cycle;Max_cycle;Signal;HPM_P1;HPM_P2
2023/09/11 00:02:21;;;;;;;26.98;16.75;;;;;;;;;;5073870;28;20048;-83
2023/09/11 00:04:47;;;;;;;25.98;17.02;;;;;;;;;;5075463;28;20044;-83
2023/09/11 00:07:14;;;;;;;25.50;17.63;;;;;;;;;;5075286;28;20064;-83
2023/09/11 00:09:40;;;;;;;21.75;17.60;;;;;;;;;;5074065;28;20060;-83
2023/09/11 00:12:06;;;;;;;26.90;18.15;;;;;;;;;;5075092;28;20134;-84
2023/09/11 00:14:32;;;;;;;30.30;20.08;;;;;;;;;;5074134;28;20037;-83
2023/09/11 00:16:58;;;;;;;30.50;18.60;;;;;;;;;;5075016;28;20048;-84
2023/09/11 00:19:25;;;;;;;21.73;17.30;;;;;;;;;;5075210;28;20044;-84
2023/09/11 00:21:51;;;;;;;22.45;17.63;;;;;;;;;;5076009;28;20045;-84
2023/09/11 00:24:17;;;;;;;28.05;18.60;;;;;;;;;;5074511;28;20484;-84
2023/09/11 00:26:43;;;;;;;30.20;18.10;;;;;;;;;;5073835;28;20044;-84
2023/09/11 00:29:09;;;;;;;24.48;17.55;;;;;;;;;;5073954;28;20044;-84
2023/09/11 00:31:35;;;;;;;27.50;18.40;;;;;;;;;;5057210;28;20040;-84
2023/09/11 00:34:01;;;;;;;24.90;17.63;;;;;;;;;;5074101;28;20150;-84
2023/09/11 00:36:27;;;;;;;25.42;18.75;;;;;;;;;;5073971;28;20059;-84
2023/09/11 00:38:53;;;;;;;21.10;18.00;;;;;;;;;;5073533;28;20048;-84
2023/09/11 00:41:19;;;;;;;28.05;18.63;;;;;;;;;;5074981;28;20067;-83
2023/09/11 00:43:45;;;;;;;27.75;17.88;;;;;;;;;;5073822;28;20061;-83
2023/09/11 00:46:11;;;;;;;26.65;18.17;;;;;;;;;;5074816;28;20127;-83
2023/09/11 00:48:38;;;;;;;22.35;17.65;;;;;;;;;;5073477;28;20048;-83
2023/09/11 00:51:04;;;;;;;26.38;17.98;;;;;;;;;;5074739;28;20078;-83
2023/09/11 00:53:30;;;;;;;32.70;19.50;;;;;;;;;;5073741;28;20106;-83
2023/09/11 00:55:56;;;;;;;25.20;19.08;;;;;;;;;;5073677;28;20041;-83
2023/09/11 00:58:22;;;;;;;29.42;18.60;;;;;;;;;;5073735;28;20132;-83
2023/09/11 01:00:49;;;;;;;25.75;18.45;;;;;;;;;;5073506;28;20052;-83
2023/09/11 01:03:15;;;;;;;26.65;18.27;;;;;;;;;;5074738;28;20118;-83
2023/09/11 01:05:43;;;;;;;25.25;18.10;;;;;;;;;;5073655;28;20041;-83
2023/09/11 01:08:09;;;;;;;23.60;19.58;;;;;;;;;;5074768;28;20049;-83
2023/09/11 01:10:36;;;;;;;28.35;19.85;;;;;;;;;;5074382;28;20048;-84
2023/09/11 01:13:02;;;;;;;30.02;21.65;;;;;;;;;;5077078;28;20048;-83
2023/09/11 01:15:32;;;;;;;24.90;18.98;;;;;;;;;;5078766;28;20060;-83
2023/09/11 01:18:04;;;;;;;29.65;20.20;;;;;;;;;;5078318;28;20522;-83
2023/09/11 01:20:49;;;;;;;29.63;20.10;;;;;;;;;;5076768;28;20082;-83
2023/09/11 01:23:21;;;;;;;21.27;19.08;;;;;;;;;;5076525;28;20392;-83
2023/09/11 01:25:51;;;;;;;25.08;19.33;;;;;;;;;;5078221;28;20076;-83
2023/09/11 01:28:36;;;;;;;28.52;21.25;;;;;;;;;;5077031;28;20041;-84
2023/09/11 01:31:02;;;;;;;23.98;20.13;;;;;;;;;;5078036;28;20047;-84
2023/09/11 01:33:28;;;;;;;32.03;20.67;;;;;;;;;;5078378;28;20048;-84
2023/09/11 01:35:54;;;;;;;30.05;21.73;;;;;;;;;;5060810;28;20060;-83
2023/09/11 01:38:20;;;;;;;27.13;19.65;;;;;;;;;;5078047;28;20044;-83
2023/09/11 01:40:47;;;;;;;22.00;18.92;;;;;;;;;;5077351;28;20063;-83
2023/09/11 01:43:15;;;;;;;27.77;20.23;;;;;;;;;;5077229;28;20055;-83
2023/09/11 01:45:41;;;;;;;30.88;21.92;;;;;;;;;;5078709;28;20558;-84
2023/09/11 01:48:08;;;;;;;24.27;21.23;;;;;;;;;;5077079;28;20063;-83
2023/09/11 01:50:35;;;;;;;24.45;21.17;;;;;;;;;;5077030;28;20587;-83
2023/09/11 01:53:04;;;;;;;28.10;22.52;;;;;;;;;;5076808;28;20053;-83
2023/09/11 01:55:32;;;;;;;28.25;21.00;;;;;;;;;;5077916;28;20427;-83
2023/09/11 01:57:58;;;;;;;25.42;21.83;;;;;;;;;;5076561;28;20044;-83
2023/09/11 02:00:24;;;;;;;27.85;22.00;;;;;;;;;;5078453;28;20041;-83
2023/09/11 02:02:54;;;;;;;24.95;21.58;;;;;;;;;;5076562;28;20044;-83
2023/09/11 02:05:20;;;;;;;29.45;22.40;;;;;;;;;;5076056;28;20040;-83
2023/09/11 02:07:47;;;;;;;25.90;22.83;;;;;;;;;;5075977;28;20476;-83
2023/09/11 02:10:13;;;;;;;29.92;22.48;;;;;;;;;;5076650;28;20044;-83
2023/09/11 02:12:39;;;;;;;28.48;22.65;;;;;;;;;;5060308;28;20053;-83
2023/09/11 02:15:05;;;;;;;26.48;22.38;;;;;;;;;;5077424;28;20489;-83
2023/09/11 02:17:31;;;;;;;32.95;24.33;;;;;;;;;;5059987;28;20091;-84
2023/09/11 02:19:57;;;;;;;26.70;23.02;;;;;;;;;;5075906;28;20075;-83
2023/09/11 02:22:23;;;;;;;29.85;22.08;;;;;;;;;;5075798;28;20515;-83
2023/09/11 02:24:49;;;;;;;29.15;22.52;;;;;;;;;;5076554;28;20045;-83
2023/09/11 02:27:16;;;;;;;28.08;23.20;;;;;;;;;;5077378;28;20044;-83
2023/09/11 02:29:42;;;;;;;25.02;22.48;;;;;;;;;;5076706;28;20427;-84
2023/09/11 02:32:08;;;;;;;34.13;24.08;;;;;;;;;;5077115;28;20048;-83
2023/09/11 02:34:34;;;;;;;26.17;22.50;;;;;;;;;;5076169;28;20052;-83
2023/09/11 02:37:00;;;;;;;25.00;22.33;;;;;;;;;;5076753;28;20484;-83
2023/09/11 02:39:26;;;;;;;29.15;20.67;;;;;;;;;;5077072;28;20051;-82
2023/09/11 02:41:52;;;;;;;29.77;21.63;;;;;;;;;;5075977;28;20496;-82
2023/09/11 02:44:18;;;;;;;26.25;22.05;;;;;;;;;;5076560;28;20162;-83
2023/09/11 02:46:44;;;;;;;26.08;23.27;;;;;;;;;;5075857;28;20082;-83
2023/09/11 02:49:10;;;;;;;36.25;23.00;;;;;;;;;;5077206;28;20082;-82
2023/09/11 02:51:36;;;;;;;28.98;22.52;;;;;;;;;;5075931;28;20048;-83
2023/09/11 02:54:02;;;;;;;28.67;21.40;;;;;;;;;;5076550;28;20051;-83
2023/09/11 02:56:28;;;;;;;25.77;21.98;;;;;;;;;;5076113;28;20079;-82
2023/09/11 02:58:55;;;;;;;27.20;23.30;;;;;;;;;;5059043;28;20055;-83
2023/09/11 03:01:21;;;;;;;24.27;20.73;;;;;;;;;;5075303;28;20045;-83
2023/09/11 03:03:47;;;;;;;27.67;22.95;;;;;;;;;;5075027;28;20499;-83
2023/09/11 03:06:13;;;;;;;26.13;22.55;;;;;;;;;;5076527;28;20048;-83
2023/09/11 03:08:39;;;;;;;33.40;22.95;;;;;;;;;;5076706;28;20078;-83
2023/09/11 03:11:11;;;;;;;25.67;21.75;;;;;;;;;;5075444;28;20499;-83
2023/09/11 03:13:37;;;;;;;31.58;23.45;;;;;;;;;;5075349;28;20528;-84
2023/09/11 03:16:08;;;;;;;22.83;20.52;;;;;;;;;;5075392;28;20052;-83
2023/09/11 03:18:34;;;;;;;27.15;22.30;;;;;;;;;;5075235;28;20052;-83
2023/09/11 03:21:00;;;;;;;26.25;23.42;;;;;;;;;;5075219;28;20036;-83
2023/09/11 03:23:26;;;;;;;34.95;25.13;;;;;;;;;;5075721;28;20044;-83
2023/09/11 03:25:52;;;;;;;27.00;22.48;;;;;;;;;;5058556;28;20049;-83
2023/09/11 03:28:18;;;;;;;30.20;23.67;;;;;;;;;;5075629;28;20052;-83
2023/09/11 03:30:47;;;;;;;27.33;23.80;;;;;;;;;;5075042;28;20555;-83
2023/09/11 03:33:13;;;;;;;25.65;22.98;;;;;;;;;;5076113;28;20197;-84
2023/09/11 03:35:39;;;;;;;24.52;21.85;;;;;;;;;;5074880;28;20049;-83
2023/09/11 03:38:05;;;;;;;27.30;21.95;;;;;;;;;;5074922;28;20450;-83
2023/09/11 03:40:31;;;;;;;27.30;22.40;;;;;;;;;;5075850;28;20055;-83
2023/09/11 03:42:57;;;;;;;31.58;24.77;;;;;;;;;;5074912;28;20052;-83
2023/09/11 03:45:23;;;;;;;27.58;22.35;;;;;;;;;;5074021;28;20419;-83
2023/09/11 03:47:49;;;;;;;39.90;29.52;;;;;;;;;;5074309;28;20048;-83
2023/09/11 03:50:15;;;;;;;26.38;22.77;;;;;;;;;;5074733;28;20040;-83
2023/09/11 03:52:42;;;;;;;31.17;23.25;;;;;;;;;;5041324;28;20468;-83
2023/09/11 03:55:08;;;;;;;25.67;20.80;;;;;;;;;;5075635;28;20424;-83
2023/09/11 03:57:34;;;;;;;25.35;22.60;;;;;;;;;;5074326;28;20090;-83
2023/09/11 04:00:00;;;;;;;25.50;22.90;;;;;;;;;;5074609;28;20167;-83
2023/09/11 04:02:26;;;;;;;24.25;21.67;;;;;;;;;;5074696;28;20049;-82
2023/09/11 04:04:52;;;;;;;26.17;20.92;;;;;;;;;;5074478;28;20246;-83
2023/09/11 04:07:18;;;;;;;28.23;25.25;;;;;;;;;;5075021;28;20079;-83
2023/09/11 04:09:44;;;;;;;24.90;22.23;;;;;;;;;;5075459;28;20047;-82
2023/09/11 04:12:14;;;;;;;28.77;22.60;;;;;;;;;;5074131;28;20110;-83
2023/09/11 04:14:40;;;;;;;28.63;24.35;;;;;;;;;;5074301;28;20119;-83
2023/09/11 04:17:10;;;;;;;25.75;22.83;;;;;;;;;;5075300;28;20055;-83
2023/09/11 04:19:36;;;;;;;26.27;23.63;;;;;;;;;;5074271;28;20070;-83
2023/09/11 04:22:04;;;;;;;29.10;23.13;;;;;;;;;;5074008;28;20080;-83
2023/09/11 04:24:30;;;;;;;24.65;22.10;;;;;;;;;;5073737;28;20131;-83
2023/09/11 04:26:56;;;;;;;27.92;23.00;;;;;;;;;;5075109;28;20040;-83
2023/09/11 04:29:22;;;;;;;25.40;22.70;;;;;;;;;;5075921;28;20044;-83
2023/09/11 04:31:49;;;;;;;30.45;25.08;;;;;;;;;;5073637;28;20055;-83
2023/09/11 04:34:15;;;;;;;27.95;23.17;;;;;;;;;;5073595;28;20063;-83
2023/09/11 04:36:41;;;;;;;27.75;23.50;;;;;;;;;;5073765;28;20048;-83
2023/09/11 04:39:07;;;;;;;25.63;23.10;;;;;;;;;;5040791;28;20065;-83
2023/09/11 04:41:33;;;;;;;24.55;21.33;;;;;;;;;;5075022;28;20513;-83
2023/09/11 04:43:59;;;;;;;26.80;23.80;;;;;;;;;;5073695;28;20381;-83
2023/09/11 04:46:25;;;;;;;25.88;23.23;;;;;;;;;;5075019;28;20056;-83
2023/09/11 04:48:51;;;;;;;30.67;24.75;;;;;;;;;;5056792;28;20145;-83
2023/09/11 04:51:17;;;;;;;26.42;23.92;;;;;;;;;;5073674;28;20052;-83
2023/09/11 04:53:43;;;;;;;29.70;25.02;;;;;;;;;;5074045;28;20044;-82
2023/09/11 04:56:09;;;;;;;27.48;23.00;;;;;;;;;;5073136;28;20083;-82
2023/09/11 04:58:35;;;;;;;26.35;23.70;;;;;;;;;;5073619;28;20051;-82
2023/09/11 05:01:03;;;;;;;27.73;24.67;;;;;;;;;;5073224;28;20090;-82
2023/09/11 05:03:29;;;;;;;29.73;25.50;;;;;;;;;;5073307;28;20082;-82
2023/09/11 05:05:55;;;;;;;30.80;24.23;;;;;;;;;;5074555;28;20399;-83
2023/09/11 05:08:21;;;;;;;33.05;25.77;;;;;;;;;;5074178;28;20071;-82
2023/09/11 05:10:47;;;;;;;32.15;24.95;;;;;;;;;;5074183;28;20037;-82
2023/09/11 05:13:13;;;;;;;27.52;24.58;;;;;;;;;;5074000;28;20044;-82
2023/09/11 05:15:39;;;;;;;26.27;23.55;;;;;;;;;;5073045;28;20044;-82
2023/09/11 05:18:06;;;;;;;26.40;23.30;;;;;;;;;;5074015;28;20499;-82
2023/09/11 05:20:33;;;;;;;27.65;23.63;;;;;;;;;;5073349;28;20036;-82
2023/09/11 05:22:59;;;;;;;28.15;25.40;;;;;;;;;;5073039;28;20136;-82
2023/09/11 05:25:25;;;;;;;31.30;26.02;;;;;;;;;;5073213;28;20400;-82
2023/09/11 05:27:51;;;;;;;35.67;27.48;;;;;;;;;;5073694;28;20048;-82
2023/09/11 05:30:17;;;;;;;32.03;25.80;;;;;;;;;;5074178;28;20045;-82
2023/09/11 05:32:47;;;;;;;27.73;24.77;;;;;;;;;;5056410;28;20059;-82
2023/09/11 05:35:14;;;;;;;29.48;25.15;;;;;;;;;;5073058;28;20052;-82
2023/09/11 05:37:40;;;;;;;30.25;24.45;;;;;;;;;;5073663;28;20080;-82
2023/09/11 05:40:07;;;;;;;27.92;24.88;;;;;;;;;;5072920;28;20044;-82
2023/09/11 05:42:33;;;;;;;32.45;26.70;;;;;;;;;;5073035;28;20492;-83
2023/09/11 05:44:59;;;;;;;32.67;28.77;;;;;;;;;;5072310;28;20056;-83
2023/09/11 05:47:25;;;;;;;30.90;27.55;;;;;;;;;;5073590;28;20535;-83
2023/09/11 05:49:51;;;;;;;33.55;27.70;;;;;;;;;;5073249;28;20098;-83
2023/09/11 05:52:17;;;;;;;29.20;25.08;;;;;;;;;;5072982;28;20044;-83
2023/09/11 05:54:43;;;;;;;32.53;25.48;;;;;;;;;;5055893;28;20442;-83
2023/09/11 05:57:10;;;;;;;33.15;27.90;;;;;;;;;;5073752;28;20109;-82
2023/09/11 05:59:37;;;;;;;30.60;25.48;;;;;;;;;;5074536;28;20047;-83
2023/09/11 06:02:03;;;;;;;36.35;27.88;;;;;;;;;;5060335;28;20069;-83
2023/09/11 06:04:30;;;;;;;40.28;26.17;;;;;;;;;;5076776;28;20377;-85
2023/09/11 06:06:56;;;;;;;29.35;22.77;;;;;;;;;;5077871;28;20045;-79
2023/09/11 06:09:22;;;;;;;31.17;25.38;;;;;;;;;;5076113;28;20066;-80
2023/09/11 06:11:49;;;;;;;28.92;25.13;;;;;;;;;;5077161;28;20132;-79
2023/09/11 06:14:15;;;;;;;27.70;24.13;;;;;;;;;;5060110;28;20053;-79
2023/09/11 06:16:41;;;;;;;32.05;25.63;;;;;;;;;;5077073;28;20052;-78
2023/09/11 06:19:08;;;;;;;33.60;25.67;;;;;;;;;;5075865;28;20476;-80
2023/09/11 06:21:34;;;;;;;31.27;24.75;;;;;;;;;;5075470;28;20044;-80
2023/09/11 06:24:00;;;;;;;37.00;24.45;;;;;;;;;;5076216;28;20048;-79
2023/09/11 06:26:26;;;;;;;30.05;26.58;;;;;;;;;;5075950;28;20083;-78
2023/09/11 06:28:52;;;;;;;32.60;26.48;;;;;;;;;;5059641;28;20098;-80
2023/09/11 06:31:18;;;;;;;33.83;25.75;;;;;;;;;;5075801;28;20468;-79
2023/09/11 06:33:44;;;;;;;31.77;24.67;;;;;;;;;;5076005;28;20044;-79
2023/09/11 06:36:10;;;;;;;30.50;23.73;;;;;;;;;;5076801;28;20060;-79
2023/09/11 06:38:36;;;;;;;28.92;24.33;;;;;;;;;;5075803;28;20499;-78
2023/09/11 06:41:03;;;;;;;31.05;24.45;;;;;;;;;;5075376;28;20052;-79
2023/09/11 06:43:29;;;;;;;30.13;23.10;;;;;;;;;;5075710;28;20546;-78
2023/09/11 06:45:56;;;;;;;28.10;24.30;;;;;;;;;;5075932;28;20044;-79
2023/09/11 06:48:22;;;;;;;35.15;26.45;;;;;;;;;;5075441;28;20114;-79
2023/09/11 06:50:48;;;;;;;26.75;22.13;;;;;;;;;;5074597;28;20048;-79
2023/09/11 06:53:14;;;;;;;32.40;23.15;;;;;;;;;;5075330;28;20507;-79
2023/09/11 06:55:44;;;;;;;30.90;21.85;;;;;;;;;;5074856;28;20086;-79
2023/09/11 06:58:10;;;;;;;31.85;22.27;;;;;;;;;;5058198;28;20049;-79
2023/09/11 07:00:36;;;;;;;26.67;21.27;;;;;;;;;;5074339;28;20098;-79
2023/09/11 07:03:03;;;;;;;30.50;20.30;;;;;;;;;;5074550;28;20480;-78
2023/09/11 07:05:29;;;;;;;25.77;20.95;;;;;;;;;;5075471;28;20041;-78
2023/09/11 07:07:55;;;;;;;26.55;19.85;;;;;;;;;;5075818;28;20106;-78
2023/09/11 07:10:21;;;;;;;22.38;19.58;;;;;;;;;;5075007;28;20036;-79
2023/09/11 07:12:49;;;;;;;24.42;19.65;;;;;;;;;;5074310;28;20370;-79
2023/09/11 07:15:15;;;;;;;28.23;20.33;;;;;;;;;;5075391;28;20102;-79
2023/09/11 07:17:41;;;;;;;22.70;18.65;;;;;;;;;;5075776;28;20132;-78
2023/09/11 07:20:09;;;;;;;25.30;19.35;;;;;;;;;;5075533;28;20110;-79
2023/09/11 07:22:35;;;;;;;24.70;18.80;;;;;;;;;;5074110;28;20056;-81
2023/09/11 07:25:02;;;;;;;25.52;19.27;;;;;;;;;;5074228;28;20045;-80
2023/09/11 07:27:33;;;;;;;25.13;19.50;;;;;;;;;;5073841;28;20574;-81
2023/09/11 07:30:05;;;;;;;22.20;17.70;;;;;;;;;;5074085;28;20059;-79
2023/09/11 07:32:31;;;;;;;21.15;18.10;;;;;;;;;;5075219;28;20040;-79
2023/09/11 07:34:58;;;;;;;20.10;17.23;;;;;;;;;;5074876;28;20044;-80
2023/09/11 07:37:24;;;;;;;29.13;19.35;;;;;;;;;;5073616;28;20044;-80
2023/09/11 07:39:50;;;;;;;30.05;19.23;;;;;;;;;;5074445;28;20044;-80
2023/09/11 07:42:16;;;;;;;26.42;18.33;;;;;;;;;;5074185;28;20044;-80
2023/09/11 07:44:45;;;;;;;24.73;19.55;;;;;;;;;;5075299;28;20052;-80
2023/09/11 07:47:14;;;;;;;21.70;17.17;;;;;;;;;;5074146;28;20110;-80
2023/09/11 07:49:40;;;;;;;20.40;18.17;;;;;;;;;;5073831;28;20049;-80
2023/09/11 07:52:06;;;;;;;25.00;18.98;;;;;;;;;;5074661;28;20105;-80
2023/09/11 07:54:33;;;;;;;27.75;17.85;;;;;;;;;;5053528;28;20048;-80
2023/09/11 07:57:01;;;;;;;25.63;19.13;;;;;;;;;;5056355;28;20055;-81
2023/09/11 07:59:27;;;;;;;25.23;18.30;;;;;;;;;;5056878;28;20048;-82
2023/09/11 08:01:53;;;;;;;20.10;17.90;;;;;;;;;;5074385;28;20080;-82
2023/09/11 08:04:19;;;;;;;24.70;18.30;;;;;;;;;;5056534;28;20048;-82
2023/09/11 08:06:45;;;;;;;22.90;17.55;;;;;;;;;;5073618;28;20059;-81
2023/09/11 08:09:11;;;;;;;26.42;17.58;;;;;;;;;;5055991;28;20040;-79
2023/09/11 08:11:39;;;;;;;21.08;16.92;;;;;;;;;;5074946;28;20041;-79
2023/09/11 08:14:06;;;;;;;19.65;14.90;;;;;;;;;;5057358;28;20052;-79
2023/09/11 08:16:32;;;;;;;23.10;16.00;;;;;;;;;;5073316;28;20102;-80
2023/09/11 08:18:58;;;;;;;24.25;15.75;;;;;;;;;;5072589;28;20488;-79
2023/09/11 08:21:24;;;;;;;20.92;14.55;;;;;;;;;;5072328;28;20509;-80
2023/09/11 08:23:50;;;;;;;19.65;14.32;;;;;;;;;;5073585;28;20050;-83
2023/09/11 08:26:17;;;;;;;18.90;14.13;;;;;;;;;;5074790;28;20098;-87
2023/09/11 08:28:43;;;;;;;16.70;13.52;;;;;;;;;;5075567;28;20598;-86
2023/09/11 08:31:09;;;;;;;18.98;13.80;;;;;;;;;;5075211;28;20040;-85
2023/09/11 08:33:35;;;;;;;17.08;12.27;;;;;;;;;;5075367;28;20089;-86
2023/09/11 08:36:01;;;;;;;18.40;12.20;;;;;;;;;;5074374;28;20109;-85
2023/09/11 08:38:27;;;;;;;14.80;11.82;;;;;;;;;;5073446;28;20048;-85
2023/09/11 08:40:54;;;;;;;19.95;11.90;;;;;;;;;;5073844;28;20045;-85
2023/09/11 08:43:24;;;;;;;18.80;12.50;;;;;;;;;;5074613;28;20060;-85
2023/09/11 08:45:51;;;;;;;19.73;12.45;;;;;;;;;;5073386;28;20386;-85
2023/09/11 08:48:18;;;;;;;18.00;11.07;;;;;;;;;;5074830;28;20502;-85
2023/09/11 08:50:48;;;;;;;17.33;10.88;;;;;;;;;;5074526;28;20469;-85
2023/09/11 08:53:17;;;;;;;23.00;11.25;;;;;;;;;;5073685;28;20045;-85
2023/09/11 08:55:43;;;;;;;19.52;10.18;;;;;;;;;;5057512;28;20041;-85
2023/09/11 08:58:11;;;;;;;16.35;10.93;;;;;;;;;;5075457;28;20040;-85
2023/09/11 09:00:37;;;;;;;16.65;9.32;;;;;;;;;;5073880;28;20480;-85
2023/09/11 09:03:04;;;;;;;17.25;10.02;;;;;;;;;;5073297;28;20127;-84
2023/09/11 09:05:30;;;;;;;17.85;9.18;;;;;;;;;;5074415;28;20048;-85
2023/09/11 09:07:57;;;;;;;18.98;9.40;;;;;;;;;;5074043;28;20053;-85
2023/09/11 09:10:25;;;;;;;17.38;9.50;;;;;;;;;;5073912;28;20485;-84
2023/09/11 09:12:51;;;;;;;16.52;9.23;;;;;;;;;;5074833;28;20044;-85
2023/09/11 09:15:17;;;;;;;14.55;8.57;;;;;;;;;;5073978;28;20390;-84
2023/09/11 09:17:43;;;;;;;17.50;8.48;;;;;;;;;;5057310;28;20044;-84
2023/09/11 09:20:10;;;;;;;14.80;9.60;;;;;;;;;;5057278;28;20041;-84
2023/09/11 09:22:50;;;;;;;17.73;9.43;;;;;;;;;;5073832;28;20098;-85
2023/09/11 09:25:16;;;;;;;18.63;10.40;;;;;;;;;;5073490;28;20045;-84
2023/09/11 09:27:42;;;;;;;17.40;9.30;;;;;;;;;;5073953;28;20052;-85
2023/09/11 09:30:18;;;;;;;14.32;8.88;;;;;;;;;;5074504;28;20123;-85
2023/09/11 09:32:44;;;;;;;17.45;9.43;;;;;;;;;;5074028;28;20056;-84
2023/09/11 09:35:10;;;;;;;18.50;10.15;;;;;;;;;;5078502;28;20400;-84
2023/09/11 09:37:36;;;;;;;20.73;9.55;;;;;;;;;;5077620;28;20044;-85
2023/09/11 09:40:04;;;;;;;14.82;9.30;;;;;;;;;;5078408;28;20198;-84
2023/09/11 09:42:40;;;;;;;13.35;8.57;;;;;;;;;;5060439;28;20136;-84
2023/09/11 09:45:06;;;;;;;20.15;9.35;;;;;;;;;;5077137;28;20052;-84
2023/09/11 09:47:32;;;;;;;16.08;8.63;;;;;;;;;;5077309;28;20056;-84
2023/09/11 09:50:01;;;;;;;14.80;9.30;;;;;;;;;;5078702;28;20044;-84
2023/09/11 09:52:28;;;;;;;14.05;9.63;;;;;;;;;;5078054;28;20102;-84
2023/09/11 09:54:56;;;;;;;16.55;9.80;;;;;;;;;;5076922;28;20080;-84
2023/09/11 09:57:22;;;;;;;13.02;10.07;;;;;;;;;;5077223;28;20041;-83
2023/09/11 09:59:57;;;;;;;15.35;10.30;;;;;;;;;;5077707;28;20041;-82
2023/09/11 10:02:25;;;;;;;15.57;11.00;;;;;;;;;;5077562;28;20488;-85
2023/09/11 10:04:52;;;;;;;19.75;10.23;;;;;;;;;;5077687;28;20040;-85
2023/09/11 10:07:36;;;;;;;17.52;9.63;;;;;;;;;;5076901;28;20040;-85
2023/09/11 10:10:21;;;;;;;11.82;9.23;;;;;;;;;;5060830;28;20091;-84
2023/09/11 10:12:47;;;;;;;16.25;10.98;;;;;;;;;;5077164;28;20056;-85
2023/09/11 10:15:13;;;;;;;12.55;10.63;;;;;;;;;;5076803;28;20048;-84
2023/09/11 10:17:39;;;;;;;14.75;11.40;;;;;;;;;;5078166;28;20055;-84
2023/09/11 10:20:06;;;;;;;14.00;10.65;;;;;;;;;;5076372;28;20179;-84
2023/09/11 10:22:32;;;;;;;15.52;11.70;;;;;;;;;;5077297;28;20080;-85
2023/09/11 10:24:58;;;;;;;15.50;12.27;;;;;;;;;;5076157;28;20079;-85
2023/09/11 10:27:25;;;;;;;14.88;11.38;;;;;;;;;;5077077;28;20075;-85
2023/09/11 10:30:03;;;;;;;14.50;10.50;;;;;;;;;;5077163;28;20365;-84
2023/09/11 10:32:43;;;;;;;14.38;10.32;;;;;;;;;;5054907;28;20049;-85
2023/09/11 10:35:10;;;;;;;11.05;9.82;;;;;;;;;;5055329;28;20603;-84
2023/09/11 10:37:39;;;;;;;14.00;9.80;;;;;;;;;;5058708;28;20055;-85
2023/09/11 10:40:06;;;;;;;10.63;8.75;;;;;;;;;;5075539;28;20098;-85
2023/09/11 10:42:32;;;;;;;11.32;8.43;;;;;;;;;;5075346;28;20055;-85
2023/09/11 10:44:58;;;;;;;11.40;9.45;;;;;;;;;;5073708;28;20071;-85
2023/09/11 10:47:27;;;;;;;15.95;9.75;;;;;;;;;;5074672;28;20052;-84
2023/09/11 10:49:56;;;;;;;11.63;8.65;;;;;;;;;;5075549;28;20127;-84
2023/09/11 10:52:24;;;;;;;12.98;9.00;;;;;;;;;;5058457;28;20048;-85
2023/09/11 10:54:51;;;;;;;9.85;8.95;;;;;;;;;;5074640;28;20470;-85
2023/09/11 10:57:17;;;;;;;12.38;8.20;;;;;;;;;;5075420;28;20373;-84
2023/09/11 10:59:43;;;;;;;9.70;8.75;;;;;;;;;;5075221;28;20459;-85
2023/09/11 11:02:09;;;;;;;12.90;8.65;;;;;;;;;;5075258;28;20045;-85
2023/09/11 11:04:35;;;;;;;10.18;9.02;;;;;;;;;;5076459;28;20409;-85
2023/09/11 11:07:02;;;;;;;13.02;9.25;;;;;;;;;;5076485;28;20067;-85
2023/09/11 11:09:28;;;;;;;9.30;8.23;;;;;;;;;;5073691;28;20049;-85
2023/09/11 11:12:05;;;;;;;11.38;8.40;;;;;;;;;;5057470;28;20135;-85
2023/09/11 11:14:31;;;;;;;12.55;8.77;;;;;;;;;;5057908;28;20045;-85
2023/09/11 11:17:04;;;;;;;12.25;10.07;;;;;;;;;;5074497;28;20097;-86
2023/09/11 11:19:39;;;;;;;9.88;8.90;;;;;;;;;;5074535;28;20052;-85
2023/09/11 11:22:07;;;;;;;9.52;8.63;;;;;;;;;;5075594;28;20054;-86
2023/09/11 11:24:37;;;;;;;11.27;8.65;;;;;;;;;;5075649;28;20048;-85
2023/09/11 11:27:03;;;;;;;11.77;9.07;;;;;;;;;;5076377;28;20048;-85
2023/09/11 11:29:30;;;;;;;12.93;10.18;;;;;;;;;;5076858;28;20392;-85
2023/09/11 11:31:59;;;;;;;12.02;10.75;;;;;;;;;;5075514;28;20051;-85
2023/09/11 11:34:28;;;;;;;14.02;9.75;;;;;;;;;;5074965;28;20052;-84
2023/09/11 11:36:57;;;;;;;13.93;10.57;;;;;;;;;;5059044;28;20044;-85
2023/09/11 11:39:24;;;;;;;11.55;10.20;;;;;;;;;;5058147;28;20071;-85
2023/09/11 11:41:51;;;;;;;14.38;11.25;;;;;;;;;;5076040;28;20050;-85
2023/09/11 11:44:18;;;;;;;11.23;8.95;;;;;;;;;;5075866;28;20052;-84
2023/09/11 11:46:45;;;;;;;10.55;9.38;;;;;;;;;;5058068;28;20083;-84
2023/09/11 11:49:11;;;;;;;11.50;9.68;;;;;;;;;;5076010;28;20053;-85
2023/09/11 11:51:40;;;;;;;11.60;10.40;;;;;;;;;;5075064;28;20484;-84
2023/09/11 11:54:06;;;;;;;12.30;9.90;;;;;;;;;;5057751;28;20052;-84
2023/09/11 11:56:32;;;;;;;13.60;10.18;;;;;;;;;;5075161;28;20045;-85
2023/09/11 11:58:58;;;;;;;14.00;10.98;;;;;;;;;;5075848;28;20049;-85
2023/09/11 12:01:24;;;;;;;11.85;10.32;;;;;;;;;;5074550;28;20056;-85
2023/09/11 12:03:51;;;;;;;11.57;10.57;;;;;;;;;;5074698;28;20048;-85
2023/09/11 12:06:19;;;;;;;13.20;10.55;;;;;;;;;;5074261;28;20094;-85
2023/09/11 12:08:45;;;;;;;11.48;10.00;;;;;;;;;;5074709;28;20048;-84
2023/09/11 12:11:12;;;;;;;11.13;10.05;;;;;;;;;;5075994;28;20127;-84
2023/09/11 12:13:38;;;;;;;8.98;8.07;;;;;;;;;;5074037;28;20097;-84
2023/09/11 12:16:04;;;;;;;9.85;7.22;;;;;;;;;;5074437;28;20052;-84
2023/09/11 12:18:35;;;;;;;8.23;6.57;;;;;;;;;;5074364;28;20503;-84
2023/09/11 12:21:03;;;;;;;7.68;6.97;;;;;;;;;;5075596;28;20041;-84
2023/09/11 12:23:29;;;;;;;9.38;5.45;;;;;;;;;;5074724;28;20052;-83
2023/09/11 12:25:56;;;;;;;7.47;5.40;;;;;;;;;;5074917;28;20052;-83
2023/09/11 12:39:33;;;;;;;7.25;6.18;;;;;;;;;;5055272;27;1966457;-81
2023/09/11 12:41:59;;;;;;;9.60;5.95;;;;;;;;;;5074580;28;20052;-82
2023/09/11 12:44:25;;;;;;;6.72;4.78;;;;;;;;;;5075297;28;20559;-82
2023/09/11 12:46:51;;;;;;;6.20;4.45;;;;;;;;;;5058328;28;20127;-82
2023/09/11 12:49:17;;;;;;;6.20;3.70;;;;;;;;;;5058368;28;20439;-82
2023/09/11 12:51:44;;;;;;;5.57;3.47;;;;;;;;;;5074636;28;20045;-82
2023/09/11 12:54:10;;;;;;;4.72;4.18;;;;;;;;;;5073911;28;20374;-82
2023/09/11 12:56:37;;;;;;;4.78;4.43;;;;;;;;;;5074487;28;20044;-82
2023/09/11 12:59:03;;;;;;;6.63;4.80;;;;;;;;;;5092373;28;20493;-82
2023/09/11 13:01:32;;;;;;;5.68;5.13;;;;;;;;;;5092056;28;20044;-83
2023/09/11 13:03:58;;;;;;;4.30;3.92;;;;;;;;;;5074193;28;20396;-83
2023/09/11 13:06:24;;;;;;;7.00;3.70;;;;;;;;;;5074508;28;20041;-82
2023/09/11 13:08:54;;;;;;;4.70;2.92;;;;;;;;;;5074443;28;20044;-82
2023/09/11 13:11:20;;;;;;;3.80;2.80;;;;;;;;;;5092192;28;20071;-82
2023/09/11 13:13:46;;;;;;;4.20;2.83;;;;;;;;;;5057438;28;20048;-82
2023/09/11 13:16:12;;;;;;;5.55;3.38;;;;;;;;;;5074336;28;20044;-82
2023/09/11 13:18:38;;;;;;;4.68;2.67;;;;;;;;;;5073433;28;20495;-82
2023/09/11 13:21:05;;;;;;;3.17;2.78;;;;;;;;;;5073379;28;20473;-83
2023/09/11 13:23:31;;;;;;;6.90;2.90;;;;;;;;;;5073777;28;20499;-82
2023/09/11 13:25:57;;;;;;;3.00;2.58;;;;;;;;;;5040705;28;20094;-82
2023/09/11 13:28:23;;;;;;;6.32;2.92;;;;;;;;;;5073916;28;20055;-82
2023/09/11 13:30:49;;;;;;;7.03;3.67;;;;;;;;;;5074024;28;20090;-83
2023/09/11 13:33:15;;;;;;;4.07;2.53;;;;;;;;;;5073746;28;20507;-83
2023/09/11 13:35:41;;;;;;;7.70;3.08;;;;;;;;;;5073676;28;20094;-83
2023/09/11 13:38:07;;;;;;;5.85;2.80;;;;;;;;;;5061454;28;20134;-83
2023/09/11 13:40:33;;;;;;;4.55;2.63;;;;;;;;;;5076924;28;20065;-82
2023/09/11 13:43:00;;;;;;;7.00;3.25;;;;;;;;;;5077175;28;20048;-83
2023/09/11 13:45:26;;;;;;;5.05;2.22;;;;;;;;;;5111494;28;20044;-83
2023/09/11 13:47:52;;;;;;;5.80;2.30;;;;;;;;;;5094472;28;20051;-83
2023/09/11 13:50:19;;;;;;;5.10;2.55;;;;;;;;;;5083858;28;20086;-83
2023/09/11 13:52:45;;;;;;;3.65;2.00;;;;;;;;;;5080175;28;20090;-83
2023/09/11 13:55:11;;;;;;;3.83;2.00;;;;;;;;;;5079386;28;20044;-83
2023/09/11 13:57:37;;;;;;;6.25;1.73;;;;;;;;;;5079665;28;20395;-82
2023/09/11 14:00:05;;;;;;;4.93;2.60;;;;;;;;;;5074054;28;20040;-83
2023/09/11 14:02:31;;;;;;;4.03;2.55;;;;;;;;;;5079877;28;20050;-82
2023/09/11 14:04:57;;;;;;;6.32;2.30;;;;;;;;;;5082067;28;20039;-83
2023/09/11 14:07:24;;;;;;;4.75;2.50;;;;;;;;;;5049725;28;20101;-82
2023/09/11 14:09:50;;;;;;;4.35;3.00;;;;;;;;;;5098023;28;20048;-82
2023/09/11 14:12:16;;;;;;;3.55;1.98;;;;;;;;;;5063508;28;20087;-82
2023/09/11 14:14:42;;;;;;;3.80;1.65;;;;;;;;;;5060312;28;20072;-82
2023/09/11 14:17:08;;;;;;;4.15;2.15;;;;;;;;;;5059925;28;20044;-82
2023/09/11 14:19:34;;;;;;;4.38;2.25;;;;;;;;;;5042973;28;20052;-90
2023/09/11 14:22:00;;;;;;;3.83;1.77;;;;;;;;;;5042784;28;20048;-82
2023/09/11 14:24:26;;;;;;;5.80;1.95;;;;;;;;;;5060577;28;20048;-82
2023/09/11 14:26:52;;;;;;;2.85;2.25;;;;;;;;;;5055437;28;20396;-82
2023/09/11 14:29:19;;;;;;;3.83;1.85;;;;;;;;;;5063430;28;20076;-82
2023/09/11 14:31:45;;;;;;;3.47;1.42;;;;;;;;;;5063527;28;20044;-82
2023/09/11 14:34:11;;;;;;;3.53;1.63;;;;;;;;;;5079042;28;20044;-82